首页
METAR-TAF:

METAR-TAF

机场 :

新奥尔良路易斯阿姆斯特朗国际机场

新奥尔良, 路易斯安那州, 美国

纬度: 29-59-34N, 经度: 090-15-03W, 海拔: 1米

当前天气观测

该预报发布于1小时和0分钟前的02:53 UTC
风速3节,风向西南
温度 26°C
湿度 94%
气压 1017 hPa
能見度: 16.1公里
散云层高于20000英尺

METAR: KMSY 220253Z 22003KT 10SM SCT200 26/25 A3002 RMK AO2 SLP169 T02560250 51004 $

时间: 22:53 (03:53 UTC)

预报

该预报发布于4小时和20分钟前的23:33 UTC
预报有效从22日的 00点(UTC)到 23日的 06点(UTC)
风速6节,风向
能見度: 10公里
散云层高于2000英尺
多云层高于25000英尺
从 22日的 0900点(UTC)
风速节,风向
能見度: 10公里
散云层高于2000英尺
多云层高于10000英尺
附近有阵雨
从 22日的 1400点(UTC)
风速5节,风向西转西南
能見度: 10公里
散云层高于2000英尺, 积雨云.
多云层高于4500英尺
小阵雨, 附近有雷暴
从 23日的 0000点(UTC)
风速3节,风向多变
能見度: 10公里
少量云层高于2500英尺
散云层高于10000英尺

TAF: KMSY 212333Z 2200/2306 18006KT P6SM SCT020 BKN250 FM220900 00000KT P6SM VCSH SCT020 BKN100 FM221400 24005KT P6SM -SHRA VCTS SCT020CB BKN045 FM230000 VRB03KT P6SM FEW025 SCT100

超过4000个机场的气象观测和天气预报(METAR&TAF报告)。

可查询的气象台以黄色和红色小点在地图上表示。

将鼠标移到小点上方,可查看气象台名称。

然后点击查看天气观测和预报。

如需切换地图:点击带黑十字的绿色按钮放大地图;点击带横线的绿色按钮缩小地图;或者点击绿色箭头查看邻近地区的地图。


METAR-TAF: